sensor_id;sensor_type;location;lat;lon;timestamp;P1;durP1;ratioP1;P2;durP2;ratioP2
22205;SDS011;11272;50.104;8.754;2023-06-14T00:00:13;5.33;;;4.23;;
22205;SDS011;11272;50.104;8.754;2023-06-14T00:02:40;7.30;;;3.63;;
22205;SDS011;11272;50.104;8.754;2023-06-14T00:05:06;5.77;;;3.67;;
22205;SDS011;11272;50.104;8.754;2023-06-14T00:07:33;5.77;;;4.03;;
22205;SDS011;11272;50.104;8.754;2023-06-14T00:10:07;5.10;;;3.97;;
22205;SDS011;11272;50.104;8.754;2023-06-14T00:12:34;5.27;;;4.20;;
22205;SDS011;11272;50.104;8.754;2023-06-14T00:15:00;4.33;;;3.43;;
22205;SDS011;11272;50.104;8.754;2023-06-14T00:17:29;4.57;;;3.70;;
22205;SDS011;11272;50.104;8.754;2023-06-14T00:19:56;6.13;;;4.33;;
22205;SDS011;11272;50.104;8.754;2023-06-14T00:22:22;4.97;;;3.60;;
22205;SDS011;11272;50.104;8.754;2023-06-14T00:24:51;4.10;;;3.43;;
22205;SDS011;11272;50.104;8.754;2023-06-14T00:27:17;5.40;;;3.93;;
22205;SDS011;11272;50.104;8.754;2023-06-14T00:29:43;5.80;;;3.57;;
22205;SDS011;11272;50.104;8.754;2023-06-14T00:32:09;5.43;;;3.97;;
22205;SDS011;11272;50.104;8.754;2023-06-14T00:34:34;5.27;;;3.63;;
22205;SDS011;11272;50.104;8.754;2023-06-14T00:37:00;5.87;;;3.80;;
22205;SDS011;11272;50.104;8.754;2023-06-14T00:39:26;4.93;;;3.73;;
22205;SDS011;11272;50.104;8.754;2023-06-14T00:41:52;6.57;;;3.90;;
22205;SDS011;11272;50.104;8.754;2023-06-14T00:44:19;6.33;;;4.07;;
22205;SDS011;11272;50.104;8.754;2023-06-14T00:46:45;5.07;;;3.80;;
22205;SDS011;11272;50.104;8.754;2023-06-14T00:49:12;4.93;;;3.50;;
22205;SDS011;11272;50.104;8.754;2023-06-14T00:51:40;4.57;;;3.60;;
22205;SDS011;11272;50.104;8.754;2023-06-14T00:54:07;5.63;;;4.27;;
22205;SDS011;11272;50.104;8.754;2023-06-14T00:56:33;4.00;;;3.40;;
22205;SDS011;11272;50.104;8.754;2023-06-14T00:59:00;8.07;;;3.73;;
22205;SDS011;11272;50.104;8.754;2023-06-14T01:01:27;6.43;;;4.00;;
22205;SDS011;11272;50.104;8.754;2023-06-14T01:04:12;6.80;;;4.03;;
22205;SDS011;11272;50.104;8.754;2023-06-14T01:15:18;5.10;;;3.67;;
22205;SDS011;11272;50.104;8.754;2023-06-14T01:17:46;6.10;;;3.67;;
22205;SDS011;11272;50.104;8.754;2023-06-14T01:20:18;4.83;;;3.77;;
22205;SDS011;11272;50.104;8.754;2023-06-14T01:22:53;6.50;;;3.80;;
22205;SDS011;11272;50.104;8.754;2023-06-14T01:25:20;5.30;;;3.90;;
22205;SDS011;11272;50.104;8.754;2023-06-14T01:28:00;5.60;;;4.00;;
22205;SDS011;11272;50.104;8.754;2023-06-14T01:30:28;5.13;;;3.33;;
22205;SDS011;11272;50.104;8.754;2023-06-14T01:32:56;5.20;;;3.60;;
22205;SDS011;11272;50.104;8.754;2023-06-14T01:35:23;5.40;;;3.57;;
22205;SDS011;11272;50.104;8.754;2023-06-14T01:37:49;6.43;;;3.87;;
22205;SDS011;11272;50.104;8.754;2023-06-14T01:40:15;5.60;;;3.67;;
22205;SDS011;11272;50.104;8.754;2023-06-14T01:42:42;5.73;;;3.97;;
22205;SDS011;11272;50.104;8.754;2023-06-14T01:45:09;4.87;;;3.70;;
22205;SDS011;11272;50.104;8.754;2023-06-14T01:47:35;6.50;;;3.40;;
22205;SDS011;11272;50.104;8.754;2023-06-14T01:50:02;6.23;;;3.60;;
22205;SDS011;11272;50.104;8.754;2023-06-14T01:52:29;5.10;;;3.60;;
22205;SDS011;11272;50.104;8.754;2023-06-14T01:54:55;7.37;;;3.97;;
22205;SDS011;11272;50.104;8.754;2023-06-14T01:57:22;4.97;;;3.50;;
22205;SDS011;11272;50.104;8.754;2023-06-14T01:59:48;6.23;;;3.87;;
22205;SDS011;11272;50.104;8.754;2023-06-14T02:02:14;4.30;;;3.33;;
22205;SDS011;11272;50.104;8.754;2023-06-14T02:04:40;5.00;;;3.23;;
22205;SDS011;11272;50.104;8.754;2023-06-14T02:07:07;5.67;;;3.43;;
22205;SDS011;11272;50.104;8.754;2023-06-14T02:09:36;5.00;;;3.40;;
22205;SDS011;11272;50.104;8.754;2023-06-14T02:12:01;4.90;;;3.53;;
22205;SDS011;11272;50.104;8.754;2023-06-14T02:14:28;4.33;;;3.50;;
22205;SDS011;11272;50.104;8.754;2023-06-14T02:16:54;4.50;;;3.60;;
22205;SDS011;11272;50.104;8.754;2023-06-14T02:19:20;4.07;;;3.43;;
22205;SDS011;11272;50.104;8.754;2023-06-14T02:21:46;5.67;;;3.70;;
22205;SDS011;11272;50.104;8.754;2023-06-14T02:24:12;3.93;;;3.40;;
22205;SDS011;11272;50.104;8.754;2023-06-14T02:26:38;4.23;;;3.43;;
22205;SDS011;11272;50.104;8.754;2023-06-14T02:29:04;4.73;;;3.50;;
22205;SDS011;11272;50.104;8.754;2023-06-14T02:31:35;4.70;;;3.43;;
22205;SDS011;11272;50.104;8.754;2023-06-14T02:34:01;6.57;;;3.60;;
22205;SDS011;11272;50.104;8.754;2023-06-14T02:36:27;6.83;;;3.50;;
22205;SDS011;11272;50.104;8.754;2023-06-14T02:38:54;5.17;;;3.77;;
22205;SDS011;11272;50.104;8.754;2023-06-14T02:41:26;5.90;;;3.40;;
22205;SDS011;11272;50.104;8.754;2023-06-14T02:43:52;5.90;;;3.50;;
22205;SDS011;11272;50.104;8.754;2023-06-14T02:46:18;4.47;;;3.07;;
22205;SDS011;11272;50.104;8.754;2023-06-14T02:48:44;6.43;;;3.87;;
22205;SDS011;11272;50.104;8.754;2023-06-14T02:51:10;6.23;;;3.37;;
22205;SDS011;11272;50.104;8.754;2023-06-14T02:53:36;7.07;;;3.60;;
22205;SDS011;11272;50.104;8.754;2023-06-14T02:56:02;4.87;;;3.43;;
22205;SDS011;11272;50.104;8.754;2023-06-14T02:58:29;6.57;;;3.47;;
22205;SDS011;11272;50.104;8.754;2023-06-14T03:00:55;7.13;;;3.37;;
22205;SDS011;11272;50.104;8.754;2023-06-14T03:03:22;4.27;;;3.40;;
22205;SDS011;11272;50.104;8.754;2023-06-14T03:05:53;4.50;;;3.53;;
22205;SDS011;11272;50.104;8.754;2023-06-14T03:08:23;4.33;;;3.40;;
22205;SDS011;11272;50.104;8.754;2023-06-14T03:10:54;4.67;;;3.60;;
22205;SDS011;11272;50.104;8.754;2023-06-14T03:13:23;5.87;;;3.70;;
22205;SDS011;11272;50.104;8.754;2023-06-14T03:15:52;5.10;;;3.70;;
22205;SDS011;11272;50.104;8.754;2023-06-14T03:18:19;4.77;;;3.23;;
22205;SDS011;11272;50.104;8.754;2023-06-14T03:20:50;5.27;;;3.40;;
22205;SDS011;11272;50.104;8.754;2023-06-14T03:23:17;5.23;;;3.53;;
22205;SDS011;11272;50.104;8.754;2023-06-14T03:25:44;6.30;;;3.40;;
22205;SDS011;11272;50.104;8.754;2023-06-14T03:28:12;5.37;;;3.30;;
22205;SDS011;11272;50.104;8.754;2023-06-14T03:30:38;5.67;;;3.47;;
22205;SDS011;11272;50.104;8.754;2023-06-14T03:33:05;4.47;;;3.30;;
22205;SDS011;11272;50.104;8.754;2023-06-14T03:35:35;4.00;;;3.23;;
22205;SDS011;11272;50.104;8.754;2023-06-14T03:38:01;3.77;;;3.13;;
22205;SDS011;11272;50.104;8.754;2023-06-14T03:40:29;8.87;;;3.63;;
22205;SDS011;11272;50.104;8.754;2023-06-14T03:43:00;6.53;;;3.60;;
22205;SDS011;11272;50.104;8.754;2023-06-14T03:45:27;6.47;;;3.47;;
22205;SDS011;11272;50.104;8.754;2023-06-14T03:47:53;5.73;;;3.57;;
22205;SDS011;11272;50.104;8.754;2023-06-14T03:50:20;5.00;;;3.67;;
22205;SDS011;11272;50.104;8.754;2023-06-14T03:52:47;4.23;;;3.13;;
22205;SDS011;11272;50.104;8.754;2023-06-14T03:55:14;6.00;;;3.53;;
22205;SDS011;11272;50.104;8.754;2023-06-14T03:57:41;5.73;;;3.40;;
22205;SDS011;11272;50.104;8.754;2023-06-14T04:00:11;5.23;;;3.23;;
22205;SDS011;11272;50.104;8.754;2023-06-14T04:02:40;8.47;;;3.23;;
22205;SDS011;11272;50.104;8.754;2023-06-14T04:05:07;5.73;;;3.73;;
22205;SDS011;11272;50.104;8.754;2023-06-14T04:07:35;4.53;;;3.53;;
22205;SDS011;11272;50.104;8.754;2023-06-14T04:10:10;5.17;;;3.40;;
22205;SDS011;11272;50.104;8.754;2023-06-14T04:12:37;5.57;;;3.70;;
22205;SDS011;11272;50.104;8.754;2023-06-14T04:15:05;7.40;;;3.90;;
22205;SDS011;11272;50.104;8.754;2023-06-14T04:17:31;9.10;;;3.87;;
22205;SDS011;11272;50.104;8.754;2023-06-14T04:20:02;4.57;;;3.33;;
22205;SDS011;11272;50.104;8.754;2023-06-14T04:22:37;6.73;;;3.43;;
22205;SDS011;11272;50.104;8.754;2023-06-14T04:25:04;6.93;;;3.80;;
22205;SDS011;11272;50.104;8.754;2023-06-14T04:30:23;6.40;;;3.20;;
22205;SDS011;11272;50.104;8.754;2023-06-14T04:32:52;10.57;;;3.30;;
22205;SDS011;11272;50.104;8.754;2023-06-14T04:35:19;4.47;;;3.37;;
22205;SDS011;11272;50.104;8.754;2023-06-14T04:37:46;4.27;;;3.20;;
22205;SDS011;11272;50.104;8.754;2023-06-14T04:40:12;6.47;;;3.43;;
22205;SDS011;11272;50.104;8.754;2023-06-14T04:42:39;5.17;;;3.53;;
22205;SDS011;11272;50.104;8.754;2023-06-14T04:45:07;5.50;;;3.50;;
22205;SDS011;11272;50.104;8.754;2023-06-14T04:47:35;5.40;;;3.50;;
22205;SDS011;11272;50.104;8.754;2023-06-14T04:50:04;5.27;;;3.30;;
22205;SDS011;11272;50.104;8.754;2023-06-14T04:52:31;4.73;;;3.20;;
22205;SDS011;11272;50.104;8.754;2023-06-14T04:54:57;5.43;;;3.10;;
22205;SDS011;11272;50.104;8.754;2023-06-14T04:57:23;4.47;;;3.47;;
22205;SDS011;11272;50.104;8.754;2023-06-14T04:59:51;7.03;;;3.50;;
22205;SDS011;11272;50.104;8.754;2023-06-14T05:02:24;4.60;;;3.33;;
22205;SDS011;11272;50.104;8.754;2023-06-14T05:04:51;7.63;;;3.37;;
22205;SDS011;11272;50.104;8.754;2023-06-14T05:07:17;6.03;;;3.60;;
22205;SDS011;11272;50.104;8.754;2023-06-14T05:09:44;9.33;;;3.57;;
22205;SDS011;11272;50.104;8.754;2023-06-14T05:12:11;4.37;;;3.53;;
22205;SDS011;11272;50.104;8.754;2023-06-14T05:14:37;5.20;;;3.53;;
22205;SDS011;11272;50.104;8.754;2023-06-14T05:17:04;5.77;;;3.10;;
22205;SDS011;11272;50.104;8.754;2023-06-14T05:19:31;5.97;;;3.63;;
22205;SDS011;11272;50.104;8.754;2023-06-14T05:21:56;4.90;;;3.10;;
22205;SDS011;11272;50.104;8.754;2023-06-14T05:24:22;5.20;;;2.90;;
22205;SDS011;11272;50.104;8.754;2023-06-14T05:26:47;5.00;;;3.13;;
22205;SDS011;11272;50.104;8.754;2023-06-14T05:29:14;7.10;;;3.37;;
22205;SDS011;11272;50.104;8.754;2023-06-14T05:31:39;6.80;;;3.10;;
22205;SDS011;11272;50.104;8.754;2023-06-14T05:34:05;4.37;;;3.20;;
22205;SDS011;11272;50.104;8.754;2023-06-14T05:36:31;4.27;;;3.13;;
22205;SDS011;11272;50.104;8.754;2023-06-14T05:38:56;4.93;;;3.30;;
22205;SDS011;11272;50.104;8.754;2023-06-14T05:41:26;5.63;;;3.40;;
22205;SDS011;11272;50.104;8.754;2023-06-14T05:43:53;6.90;;;3.30;;
22205;SDS011;11272;50.104;8.754;2023-06-14T05:46:19;9.60;;;3.33;;
22205;SDS011;11272;50.104;8.754;2023-06-14T05:48:47;8.13;;;3.87;;
22205;SDS011;11272;50.104;8.754;2023-06-14T05:51:14;4.73;;;3.50;;
22205;SDS011;11272;50.104;8.754;2023-06-14T05:53:44;3.83;;;3.20;;
22205;SDS011;11272;50.104;8.754;2023-06-14T05:56:11;6.27;;;3.13;;
22205;SDS011;11272;50.104;8.754;2023-06-14T05:58:37;5.73;;;3.23;;
22205;SDS011;11272;50.104;8.754;2023-06-14T06:01:02;6.83;;;3.77;;
22205;SDS011;11272;50.104;8.754;2023-06-14T06:03:29;4.00;;;3.23;;
22205;SDS011;11272;50.104;8.754;2023-06-14T06:05:54;6.20;;;3.37;;
22205;SDS011;11272;50.104;8.754;2023-06-14T06:08:23;5.10;;;3.27;;
22205;SDS011;11272;50.104;8.754;2023-06-14T06:10:48;4.60;;;3.37;;
22205;SDS011;11272;50.104;8.754;2023-06-14T06:13:14;4.73;;;2.93;;
22205;SDS011;11272;50.104;8.754;2023-06-14T06:15:40;5.30;;;3.20;;
22205;SDS011;11272;50.104;8.754;2023-06-14T06:18:06;3.87;;;3.00;;
22205;SDS011;11272;50.104;8.754;2023-06-14T06:20:32;5.33;;;3.30;;
22205;SDS011;11272;50.104;8.754;2023-06-14T06:23:01;7.10;;;3.00;;
22205;SDS011;11272;50.104;8.754;2023-06-14T06:25:27;5.83;;;3.50;;
22205;SDS011;11272;50.104;8.754;2023-06-14T06:27:53;4.00;;;3.27;;
22205;SDS011;11272;50.104;8.754;2023-06-14T06:30:20;3.17;;;2.80;;
22205;SDS011;11272;50.104;8.754;2023-06-14T06:32:46;5.53;;;3.40;;
22205;SDS011;11272;50.104;8.754;2023-06-14T06:35:12;5.40;;;3.00;;
22205;SDS011;11272;50.104;8.754;2023-06-14T06:37:39;3.90;;;3.17;;
22205;SDS011;11272;50.104;8.754;2023-06-14T06:40:05;5.13;;;3.43;;
22205;SDS011;11272;50.104;8.754;2023-06-14T06:42:32;3.30;;;2.93;;
22205;SDS011;11272;50.104;8.754;2023-06-14T06:45:02;5.10;;;3.23;;
22205;SDS011;11272;50.104;8.754;2023-06-14T06:47:31;3.83;;;2.70;;
22205;SDS011;11272;50.104;8.754;2023-06-14T06:49:56;5.53;;;2.80;;
22205;SDS011;11272;50.104;8.754;2023-06-14T06:52:22;5.23;;;2.67;;
22205;SDS011;11272;50.104;8.754;2023-06-14T06:54:47;2.80;;;2.50;;
22205;SDS011;11272;50.104;8.754;2023-06-14T06:57:15;5.43;;;2.93;;
22205;SDS011;11272;50.104;8.754;2023-06-14T06:59:41;4.20;;;2.67;;
22205;SDS011;11272;50.104;8.754;2023-06-14T07:02:06;4.73;;;2.57;;
22205;SDS011;11272;50.104;8.754;2023-06-14T07:04:32;2.60;;;2.37;;
22205;SDS011;11272;50.104;8.754;2023-06-14T07:06:57;7.40;;;2.23;;
22205;SDS011;11272;50.104;8.754;2023-06-14T07:09:23;5.10;;;2.53;;
22205;SDS011;11272;50.104;8.754;2023-06-14T07:11:49;2.83;;;2.10;;
22205;SDS011;11272;50.104;8.754;2023-06-14T07:14:15;3.13;;;2.13;;
22205;SDS011;11272;50.104;8.754;2023-06-14T07:16:41;3.33;;;2.33;;
22205;SDS011;11272;50.104;8.754;2023-06-14T07:19:06;3.73;;;2.00;;
22205;SDS011;11272;50.104;8.754;2023-06-14T07:21:32;4.57;;;2.50;;
22205;SDS011;11272;50.104;8.754;2023-06-14T07:23:57;4.03;;;2.37;;
22205;SDS011;11272;50.104;8.754;2023-06-14T07:26:23;3.53;;;2.35;;
22205;SDS011;11272;50.104;8.754;2023-06-14T07:28:49;2.70;;;1.90;;
22205;SDS011;11272;50.104;8.754;2023-06-14T07:31:16;3.00;;;2.03;;
22205;SDS011;11272;50.104;8.754;2023-06-14T07:33:43;2.38;;;2.00;;
22205;SDS011;11272;50.104;8.754;2023-06-14T07:36:09;5.38;;;2.50;;
22205;SDS011;11272;50.104;8.754;2023-06-14T07:38:35;2.47;;;2.28;;
22205;SDS011;11272;50.104;8.754;2023-06-14T07:41:01;3.35;;;1.88;;
22205;SDS011;11272;50.104;8.754;2023-06-14T07:43:28;2.53;;;2.15;;
22205;SDS011;11272;50.104;8.754;2023-06-14T07:45:54;2.97;;;2.00;;
22205;SDS011;11272;50.104;8.754;2023-06-14T07:48:20;3.08;;;2.05;;
22205;SDS011;11272;50.104;8.754;2023-06-14T07:50:45;2.78;;;1.83;;
22205;SDS011;11272;50.104;8.754;2023-06-14T07:53:12;2.60;;;1.70;;
22205;SDS011;11272;50.104;8.754;2023-06-14T07:55:38;1.92;;;1.70;;
22205;SDS011;11272;50.104;8.754;2023-06-14T07:58:06;2.05;;;1.85;;
22205;SDS011;11272;50.104;8.754;2023-06-14T08:00:32;4.13;;;1.80;;
22205;SDS011;11272;50.104;8.754;2023-06-14T08:02:57;1.90;;;1.75;;
22205;SDS011;11272;50.104;8.754;2023-06-14T08:05:27;1.83;;;1.70;;
22205;SDS011;11272;50.104;8.754;2023-06-14T08:07:53;4.88;;;1.45;;
22205;SDS011;11272;50.104;8.754;2023-06-14T08:10:19;2.00;;;1.80;;
22205;SDS011;11272;50.104;8.754;2023-06-14T08:12:46;1.85;;;1.40;;
22205;SDS011;11272;50.104;8.754;2023-06-14T08:15:12;4.18;;;1.70;;
22205;SDS011;11272;50.104;8.754;2023-06-14T08:17:38;2.03;;;1.50;;
22205;SDS011;11272;50.104;8.754;2023-06-14T08:20:03;2.35;;;1.50;;
22205;SDS011;11272;50.104;8.754;2023-06-14T08:22:31;2.42;;;1.60;;
22205;SDS011;11272;50.104;8.754;2023-06-14T08:24:59;1.83;;;1.65;;
22205;SDS011;11272;50.104;8.754;2023-06-14T08:27:26;2.10;;;1.77;;
22205;SDS011;11272;50.104;8.754;2023-06-14T08:29:52;1.90;;;1.63;;
22205;SDS011;11272;50.104;8.754;2023-06-14T08:32:18;3.13;;;1.73;;
22205;SDS011;11272;50.104;8.754;2023-06-14T08:34:44;3.05;;;1.60;;
22205;SDS011;11272;50.104;8.754;2023-06-14T08:37:10;2.97;;;1.60;;
22205;SDS011;11272;50.104;8.754;2023-06-14T08:39:35;1.67;;;1.58;;
22205;SDS011;11272;50.104;8.754;2023-06-14T08:42:01;1.52;;;1.40;;
22205;SDS011;11272;50.104;8.754;2023-06-14T08:44:28;1.52;;;1.40;;
22205;SDS011;11272;50.104;8.754;2023-06-14T08:46:57;4.55;;;1.65;;
22205;SDS011;11272;50.104;8.754;2023-06-14T08:49:24;3.95;;;1.58;;
22205;SDS011;11272;50.104;8.754;2023-06-14T08:51:58;2.60;;;1.90;;
22205;SDS011;11272;50.104;8.754;2023-06-14T08:54:25;2.17;;;1.38;;
22205;SDS011;11272;50.104;8.754;2023-06-14T08:56:54;1.75;;;1.60;;
22205;SDS011;11272;50.104;8.754;2023-06-14T08:59:28;1.52;;;1.42;;
22205;SDS011;11272;50.104;8.754;2023-06-14T09:01:56;4.47;;;1.75;;
22205;SDS011;11272;50.104;8.754;2023-06-14T09:04:22;1.38;;;1.27;;
22205;SDS011;11272;50.104;8.754;2023-06-14T09:06:49;1.73;;;1.38;;
22205;SDS011;11272;50.104;8.754;2023-06-14T09:09:21;2.08;;;1.63;;
22205;SDS011;11272;50.104;8.754;2023-06-14T09:11:49;2.78;;;1.33;;
22205;SDS011;11272;50.104;8.754;2023-06-14T09:14:18;1.70;;;1.60;;
22205;SDS011;11272;50.104;8.754;2023-06-14T09:16:44;3.03;;;1.63;;
22205;SDS011;11272;50.104;8.754;2023-06-14T09:19:13;3.33;;;1.80;;
22205;SDS011;11272;50.104;8.754;2023-06-14T09:21:47;4.70;;;1.60;;
22205;SDS011;11272;50.104;8.754;2023-06-14T09:24:13;3.00;;;1.50;;
22205;SDS011;11272;50.104;8.754;2023-06-14T09:26:39;1.90;;;1.70;;
22205;SDS011;11272;50.104;8.754;2023-06-14T09:29:06;2.90;;;1.73;;
22205;SDS011;11272;50.104;8.754;2023-06-14T09:31:32;1.48;;;1.20;;
22205;SDS011;11272;50.104;8.754;2023-06-14T09:33:59;1.83;;;1.50;;
22205;SDS011;11272;50.104;8.754;2023-06-14T09:36:28;2.10;;;1.58;;
22205;SDS011;11272;50.104;8.754;2023-06-14T09:38:55;1.80;;;1.35;;
22205;SDS011;11272;50.104;8.754;2023-06-14T09:41:36;1.73;;;1.55;;
22205;SDS011;11272;50.104;8.754;2023-06-14T09:44:05;1.95;;;1.50;;
22205;SDS011;11272;50.104;8.754;2023-06-14T09:46:32;3.63;;;1.85;;
22205;SDS011;11272;50.104;8.754;2023-06-14T09:49:00;2.13;;;1.30;;
22205;SDS011;11272;50.104;8.754;2023-06-14T09:51:27;1.40;;;1.30;;
22205;SDS011;11272;50.104;8.754;2023-06-14T09:53:58;4.82;;;1.80;;
22205;SDS011;11272;50.104;8.754;2023-06-14T09:56:36;3.33;;;1.50;;
22205;SDS011;11272;50.104;8.754;2023-06-14T09:59:06;2.67;;;1.60;;
22205;SDS011;11272;50.104;8.754;2023-06-14T10:01:35;3.10;;;1.50;;
22205;SDS011;11272;50.104;8.754;2023-06-14T10:04:06;1.63;;;1.52;;
22205;SDS011;11272;50.104;8.754;2023-06-14T10:06:34;1.50;;;1.40;;
22205;SDS011;11272;50.104;8.754;2023-06-14T10:09:02;2.83;;;2.50;;
22205;SDS011;11272;50.104;8.754;2023-06-14T10:11:29;2.17;;;1.70;;
22205;SDS011;11272;50.104;8.754;2023-06-14T10:13:55;3.58;;;1.88;;
22205;SDS011;11272;50.104;8.754;2023-06-14T10:16:30;1.63;;;1.52;;
22205;SDS011;11272;50.104;8.754;2023-06-14T10:24:43;3.20;;;1.90;;
22205;SDS011;11272;50.104;8.754;2023-06-14T10:27:09;3.35;;;1.70;;
22205;SDS011;11272;50.104;8.754;2023-06-14T10:30:01;2.03;;;1.80;;
22205;SDS011;11272;50.104;8.754;2023-06-14T10:32:30;3.50;;;1.52;;
22205;SDS011;11272;50.104;8.754;2023-06-14T10:35:00;1.80;;;1.60;;
22205;SDS011;11272;50.104;8.754;2023-06-14T10:37:34;3.28;;;1.92;;
22205;SDS011;11272;50.104;8.754;2023-06-14T10:40:00;2.05;;;1.85;;
22205;SDS011;11272;50.104;8.754;2023-06-14T10:42:35;2.03;;;1.77;;
22205;SDS011;11272;50.104;8.754;2023-06-14T10:45:03;2.40;;;1.95;;
22205;SDS011;11272;50.104;8.754;2023-06-14T10:47:34;1.63;;;1.52;;
22205;SDS011;11272;50.104;8.754;2023-06-14T10:50:07;3.40;;;2.00;;
22205;SDS011;11272;50.104;8.754;2023-06-14T10:52:37;3.95;;;1.90;;
22205;SDS011;11272;50.104;8.754;2023-06-14T10:55:05;2.67;;;1.77;;
22205;SDS011;11272;50.104;8.754;2023-06-14T10:57:51;2.47;;;1.90;;
22205;SDS011;11272;50.104;8.754;2023-06-14T11:00:21;1.48;;;1.38;;
22205;SDS011;11272;50.104;8.754;2023-06-14T11:05:45;2.30;;;1.60;;
22205;SDS011;11272;50.104;8.754;2023-06-14T11:11:21;2.85;;;2.30;;
22205;SDS011;11272;50.104;8.754;2023-06-14T11:13:51;4.38;;;1.60;;
22205;SDS011;11272;50.104;8.754;2023-06-14T11:16:25;2.60;;;1.27;;
22205;SDS011;11272;50.104;8.754;2023-06-14T11:18:53;1.50;;;1.40;;
22205;SDS011;11272;50.104;8.754;2023-06-14T11:21:19;2.70;;;1.25;;
22205;SDS011;11272;50.104;8.754;2023-06-14T11:23:49;2.17;;;1.70;;
22205;SDS011;11272;50.104;8.754;2023-06-14T11:26:27;1.90;;;1.70;;
22205;SDS011;11272;50.104;8.754;2023-06-14T11:29:00;1.70;;;1.60;;
22205;SDS011;11272;50.104;8.754;2023-06-14T11:31:26;1.50;;;1.40;;
22205;SDS011;11272;50.104;8.754;2023-06-14T11:33:53;1.65;;;1.50;;
22205;SDS011;11272;50.104;8.754;2023-06-14T11:36:21;1.70;;;1.60;;
22205;SDS011;11272;50.104;8.754;2023-06-14T11:38:47;1.70;;;1.60;;
22205;SDS011;11272;50.104;8.754;2023-06-14T11:41:13;2.30;;;1.63;;
22205;SDS011;11272;50.104;8.754;2023-06-14T11:43:39;6.75;;;4.70;;
22205;SDS011;11272;50.104;8.754;2023-06-14T11:46:11;1.88;;;1.65;;
22205;SDS011;11272;50.104;8.754;2023-06-14T11:48:42;1.90;;;1.70;;
22205;SDS011;11272;50.104;8.754;2023-06-14T11:51:08;1.70;;;1.60;;
22205;SDS011;11272;50.104;8.754;2023-06-14T11:53:34;2.97;;;1.83;;
22205;SDS011;11272;50.104;8.754;2023-06-14T11:58:49;5.40;;;1.80;;
22205;SDS011;11272;50.104;8.754;2023-06-14T12:01:18;2.50;;;2.28;;
22205;SDS011;11272;50.104;8.754;2023-06-14T12:03:51;4.45;;;2.20;;
22205;SDS011;11272;50.104;8.754;2023-06-14T12:06:26;3.85;;;2.40;;
22205;SDS011;11272;50.104;8.754;2023-06-14T12:09:04;3.55;;;1.95;;
22205;SDS011;11272;50.104;8.754;2023-06-14T12:11:34;3.25;;;2.38;;
22205;SDS011;11272;50.104;8.754;2023-06-14T12:14:00;2.25;;;2.00;;
22205;SDS011;11272;50.104;8.754;2023-06-14T12:16:30;4.07;;;2.17;;
22205;SDS011;11272;50.104;8.754;2023-06-14T12:19:00;2.58;;;2.20;;
22205;SDS011;11272;50.104;8.754;2023-06-14T12:21:28;2.90;;;2.42;;
22205;SDS011;11272;50.104;8.754;2023-06-14T12:23:54;2.78;;;2.50;;
22205;SDS011;11272;50.104;8.754;2023-06-14T12:26:24;4.03;;;2.47;;
22205;SDS011;11272;50.104;8.754;2023-06-14T12:28:52;2.92;;;2.50;;
22205;SDS011;11272;50.104;8.754;2023-06-14T12:31:17;2.38;;;2.17;;
22205;SDS011;11272;50.104;8.754;2023-06-14T12:33:44;2.65;;;2.05;;
22205;SDS011;11272;50.104;8.754;2023-06-14T12:36:14;2.35;;;1.98;;
22205;SDS011;11272;50.104;8.754;2023-06-14T12:38:40;3.20;;;2.25;;
22205;SDS011;11272;50.104;8.754;2023-06-14T12:41:06;2.10;;;1.90;;
22205;SDS011;11272;50.104;8.754;2023-06-14T12:43:32;2.38;;;1.98;;
22205;SDS011;11272;50.104;8.754;2023-06-14T12:45:59;2.47;;;2.00;;
22205;SDS011;11272;50.104;8.754;2023-06-14T12:48:25;2.60;;;1.80;;
22205;SDS011;11272;50.104;8.754;2023-06-14T12:50:55;2.97;;;2.20;;
22205;SDS011;11272;50.104;8.754;2023-06-14T12:53:20;3.05;;;2.42;;
22205;SDS011;11272;50.104;8.754;2023-06-14T12:55:47;3.55;;;2.10;;
22205;SDS011;11272;50.104;8.754;2023-06-14T12:58:12;3.20;;;2.13;;
22205;SDS011;11272;50.104;8.754;2023-06-14T13:00:39;2.72;;;1.70;;
22205;SDS011;11272;50.104;8.754;2023-06-14T13:03:05;4.13;;;2.00;;
22205;SDS011;11272;50.104;8.754;2023-06-14T13:05:30;4.07;;;1.90;;
22205;SDS011;11272;50.104;8.754;2023-06-14T13:07:58;5.38;;;1.90;;
22205;SDS011;11272;50.104;8.754;2023-06-14T13:10:24;2.25;;;2.03;;
22205;SDS011;11272;50.104;8.754;2023-06-14T13:12:51;2.28;;;1.95;;
22205;SDS011;11272;50.104;8.754;2023-06-14T13:15:17;2.33;;;1.67;;
22205;SDS011;11272;50.104;8.754;2023-06-14T13:17:42;2.10;;;1.90;;
22205;SDS011;11272;50.104;8.754;2023-06-14T13:20:13;2.20;;;2.00;;
22205;SDS011;11272;50.104;8.754;2023-06-14T13:22:40;2.30;;;2.10;;
22205;SDS011;11272;50.104;8.754;2023-06-14T13:25:06;2.70;;;2.13;;
22205;SDS011;11272;50.104;8.754;2023-06-14T13:27:32;2.88;;;2.22;;
22205;SDS011;11272;50.104;8.754;2023-06-14T13:29:58;2.03;;;1.80;;
22205;SDS011;11272;50.104;8.754;2023-06-14T13:32:24;2.75;;;2.08;;
22205;SDS011;11272;50.104;8.754;2023-06-14T13:34:49;1.70;;;1.60;;
22205;SDS011;11272;50.104;8.754;2023-06-14T13:37:15;2.55;;;1.92;;
22205;SDS011;11272;50.104;8.754;2023-06-14T13:39:43;4.40;;;1.70;;
22205;SDS011;11272;50.104;8.754;2023-06-14T13:42:09;2.45;;;2.00;;
22205;SDS011;11272;50.104;8.754;2023-06-14T13:44:35;2.33;;;2.00;;
22205;SDS011;11272;50.104;8.754;2023-06-14T13:47:01;1.88;;;1.75;;
22205;SDS011;11272;50.104;8.754;2023-06-14T13:49:26;1.83;;;1.63;;
22205;SDS011;11272;50.104;8.754;2023-06-14T13:51:52;2.10;;;1.63;;
22205;SDS011;11272;50.104;8.754;2023-06-14T13:54:19;2.10;;;1.90;;
22205;SDS011;11272;50.104;8.754;2023-06-14T13:56:46;2.53;;;1.90;;
22205;SDS011;11272;50.104;8.754;2023-06-14T13:59:12;2.58;;;1.88;;
22205;SDS011;11272;50.104;8.754;2023-06-14T14:01:37;2.10;;;1.90;;
22205;SDS011;11272;50.104;8.754;2023-06-14T14:04:04;2.15;;;1.80;;
22205;SDS011;11272;50.104;8.754;2023-06-14T14:06:30;2.60;;;1.88;;
22205;SDS011;11272;50.104;8.754;2023-06-14T14:08:56;5.63;;;1.80;;
22205;SDS011;11272;50.104;8.754;2023-06-14T14:11:22;2.15;;;1.63;;
22205;SDS011;11272;50.104;8.754;2023-06-14T14:13:47;1.70;;;1.60;;
22205;SDS011;11272;50.104;8.754;2023-06-14T14:16:13;1.60;;;1.50;;
22205;SDS011;11272;50.104;8.754;2023-06-14T14:18:39;2.00;;;1.60;;
22205;SDS011;11272;50.104;8.754;2023-06-14T14:21:04;2.50;;;1.50;;
22205;SDS011;11272;50.104;8.754;2023-06-14T14:23:30;1.98;;;1.80;;
22205;SDS011;11272;50.104;8.754;2023-06-14T14:25:56;3.47;;;2.30;;
22205;SDS011;11272;50.104;8.754;2023-06-14T14:28:22;2.13;;;1.90;;
22205;SDS011;11272;50.104;8.754;2023-06-14T14:30:48;3.05;;;2.00;;
22205;SDS011;11272;50.104;8.754;2023-06-14T14:33:13;2.85;;;1.92;;
22205;SDS011;11272;50.104;8.754;2023-06-14T14:35:45;1.67;;;1.58;;
22205;SDS011;11272;50.104;8.754;2023-06-14T14:38:14;1.60;;;1.50;;
22205;SDS011;11272;50.104;8.754;2023-06-14T14:40:42;2.10;;;1.90;;
22205;SDS011;11272;50.104;8.754;2023-06-14T14:43:09;1.90;;;1.70;;
22205;SDS011;11272;50.104;8.754;2023-06-14T14:45:34;2.42;;;1.90;;
22205;SDS011;11272;50.104;8.754;2023-06-14T14:48:00;1.90;;;1.70;;
22205;SDS011;11272;50.104;8.754;2023-06-14T14:50:27;3.80;;;1.73;;
22205;SDS011;11272;50.104;8.754;2023-06-14T14:52:52;1.95;;;1.55;;
22205;SDS011;11272;50.104;8.754;2023-06-14T14:55:18;2.00;;;1.80;;
22205;SDS011;11272;50.104;8.754;2023-06-14T14:57:45;1.83;;;1.70;;
22205;SDS011;11272;50.104;8.754;2023-06-14T15:00:11;2.58;;;1.48;;
22205;SDS011;11272;50.104;8.754;2023-06-14T15:02:36;2.10;;;1.90;;
22205;SDS011;11272;50.104;8.754;2023-06-14T15:05:02;2.97;;;1.80;;
22205;SDS011;11272;50.104;8.754;2023-06-14T15:07:29;2.75;;;1.98;;
22205;SDS011;11272;50.104;8.754;2023-06-14T15:09:56;2.03;;;1.83;;
22205;SDS011;11272;50.104;8.754;2023-06-14T15:12:22;1.38;;;1.27;;
22205;SDS011;11272;50.104;8.754;2023-06-14T15:14:51;2.13;;;1.63;;